createdAt,value
2018-08-24T00:00:11.349Z,2.10
2018-08-24T00:02:39.785Z,2.20
2018-08-24T00:05:08.252Z,2.27
2018-08-24T00:07:36.669Z,1.90
2018-08-24T00:10:05.729Z,1.65
2018-08-24T00:12:34.164Z,2.05
2018-08-24T00:15:03.550Z,1.80
2018-08-24T00:17:32.264Z,1.70
2018-08-24T00:20:01.472Z,1.57
2018-08-24T00:22:30.086Z,1.62
2018-08-24T00:24:58.472Z,1.60
2018-08-24T00:27:26.888Z,1.47
2018-08-24T00:29:55.302Z,1.50
2018-08-24T00:32:23.741Z,1.52
2018-08-24T00:34:52.155Z,1.42
2018-08-24T00:37:20.616Z,1.40
2018-08-24T00:39:49.178Z,1.70
2018-08-24T00:42:17.592Z,1.40
2018-08-24T00:44:46.021Z,1.27
2018-08-24T00:47:14.448Z,1.17
2018-08-24T00:49:42.872Z,1.27
2018-08-24T00:52:11.260Z,1.30
2018-08-24T00:54:39.715Z,1.30
2018-08-24T00:57:08.159Z,1.20
2018-08-24T00:59:36.637Z,1.20
2018-08-24T01:02:05.301Z,1.02
2018-08-24T01:04:34.307Z,1.35
2018-08-24T01:07:08.540Z,1.10
2018-08-24T01:09:37.294Z,1.25
2018-08-24T01:12:13.131Z,1.32
2018-08-24T01:14:48.640Z,1.00
2018-08-24T01:17:22.274Z,1.20
2018-08-24T01:19:50.704Z,1.05
2018-08-24T01:22:18.823Z,1.30
2018-08-24T01:24:47.301Z,1.57
2018-08-24T01:27:15.707Z,1.07
2018-08-24T01:29:44.397Z,1.20
2018-08-24T01:32:14.472Z,1.47
2018-08-24T01:34:42.963Z,1.50
2018-08-24T01:37:11.061Z,1.10
2018-08-24T01:39:39.224Z,1.10
2018-08-24T01:42:07.638Z,1.27
2018-08-24T01:44:36.134Z,1.02
2018-08-24T01:47:04.589Z,1.17
2018-08-24T01:49:32.721Z,1.30
2018-08-24T01:52:01.117Z,1.22
2018-08-24T01:54:29.556Z,1.40
2018-08-24T01:56:57.965Z,1.10
2018-08-24T01:59:26.080Z,1.35
2018-08-24T02:01:54.484Z,1.12
2018-08-24T02:04:23.161Z,1.47
2018-08-24T02:06:51.556Z,1.10
2018-08-24T02:09:22.844Z,1.72
2018-08-24T02:11:51.667Z,1.55
2018-08-24T02:14:25.694Z,1.17
2018-08-24T02:16:54.098Z,1.17
2018-08-24T02:19:27.988Z,1.32
2018-08-24T02:22:01.699Z,1.20
2018-08-24T02:24:30.224Z,1.25
2018-08-24T02:26:58.656Z,1.50
2018-08-24T02:29:27.073Z,1.70
2018-08-24T02:31:55.520Z,1.37
2018-08-24T02:34:23.966Z,1.70
2018-08-24T02:36:52.423Z,1.85
2018-08-24T02:39:20.865Z,1.60
2018-08-24T02:41:49.312Z,1.40
2018-08-24T02:44:17.773Z,1.47
2018-08-24T02:46:46.513Z,1.65
2018-08-24T02:49:15.023Z,1.40
2018-08-24T02:51:43.176Z,1.42
2018-08-24T02:54:11.597Z,1.72
2018-08-24T02:56:40.044Z,1.77
2018-08-24T02:59:08.466Z,1.90
2018-08-24T03:01:36.896Z,1.75
2018-08-24T03:04:05.322Z,1.40
2018-08-24T03:06:33.744Z,1.35
2018-08-24T03:09:02.189Z,1.85
2018-08-24T03:11:30.604Z,1.57
2018-08-24T03:13:59.061Z,1.50
2018-08-24T03:16:27.591Z,1.35
2018-08-24T03:18:55.990Z,1.65
2018-08-24T03:21:24.400Z,1.30
2018-08-24T03:23:52.801Z,1.35
2018-08-24T03:26:21.246Z,1.45
2018-08-24T03:28:49.648Z,1.20
2018-08-24T03:31:18.065Z,1.55
2018-08-24T03:33:46.516Z,1.90
2018-08-24T03:36:14.940Z,1.50
2018-08-24T03:38:43.344Z,1.87
2018-08-24T03:41:11.789Z,1.87
2018-08-24T03:43:40.220Z,1.85
2018-08-24T03:46:08.652Z,1.50
2018-08-24T03:48:37.064Z,1.62
2018-08-24T03:51:05.505Z,1.67
2018-08-24T03:53:33.884Z,1.57
2018-08-24T03:56:02.342Z,1.70
2018-08-24T03:58:30.756Z,1.90
2018-08-24T04:00:59.632Z,1.75
2018-08-24T04:03:29.133Z,1.55
2018-08-24T04:05:57.569Z,1.70
2018-08-24T04:08:26.041Z,1.95
2018-08-24T04:10:54.473Z,1.45
2018-08-24T04:13:22.864Z,1.70
2018-08-24T04:15:51.301Z,1.50
2018-08-24T04:18:19.729Z,1.60
2018-08-24T04:20:48.196Z,1.75
2018-08-24T04:23:16.712Z,1.95
2018-08-24T04:25:45.177Z,1.52
2018-08-24T04:28:13.749Z,1.52
2018-08-24T04:30:42.141Z,1.65
2018-08-24T04:33:10.306Z,1.60
2018-08-24T04:35:38.709Z,1.90
2018-08-24T04:38:07.160Z,1.90
2018-08-24T04:40:35.592Z,1.62
2018-08-24T04:43:04.031Z,1.62
2018-08-24T04:45:32.465Z,1.50
2018-08-24T04:48:00.898Z,1.67
2018-08-24T04:50:29.309Z,1.32
2018-08-24T04:52:57.722Z,2.05
2018-08-24T04:55:26.149Z,1.98
2018-08-24T04:57:54.620Z,1.60
2018-08-24T05:00:23.062Z,1.65
2018-08-24T05:02:51.525Z,1.87
2018-08-24T05:05:19.904Z,1.92
2018-08-24T05:07:48.336Z,1.60
2018-08-24T05:10:16.734Z,2.08
2018-08-24T05:12:45.477Z,1.47
2018-08-24T05:15:13.880Z,1.60
2018-08-24T05:17:42.297Z,1.60
2018-08-24T05:20:10.693Z,1.77
2018-08-24T05:22:39.113Z,1.62
2018-08-24T05:25:07.560Z,1.75
2018-08-24T05:27:35.985Z,1.98
2018-08-24T05:30:04.476Z,1.75
2018-08-24T05:32:32.919Z,1.90
2018-08-24T05:35:01.337Z,2.37
2018-08-24T05:37:29.769Z,1.67
2018-08-24T05:39:58.210Z,1.60
2018-08-24T05:42:26.639Z,2.08
2018-08-24T05:44:55.052Z,2.00
2018-08-24T05:47:23.516Z,1.57
2018-08-24T05:49:51.999Z,1.72
2018-08-24T05:52:20.464Z,1.70
2018-08-24T05:54:49.005Z,2.45
2018-08-24T05:57:17.430Z,1.55
2018-08-24T05:59:45.840Z,1.90
2018-08-24T06:02:14.260Z,1.90
2018-08-24T06:04:42.689Z,1.67
2018-08-24T06:07:11.229Z,1.50
2018-08-24T06:09:39.638Z,1.75
2018-08-24T06:12:08.341Z,1.50
2018-08-24T06:14:36.827Z,1.70
2018-08-24T06:17:10.674Z,1.50
2018-08-24T06:19:39.111Z,1.30
2018-08-24T06:22:07.505Z,1.67
2018-08-24T06:24:36.067Z,1.70
2018-08-24T06:27:04.432Z,1.62
2018-08-24T06:29:32.864Z,1.50
2018-08-24T06:32:01.463Z,1.37
2018-08-24T06:34:29.882Z,1.98
2018-08-24T06:36:58.327Z,1.62
2018-08-24T06:39:26.738Z,1.50
2018-08-24T06:41:55.314Z,1.30
2018-08-24T06:44:23.593Z,1.20
2018-08-24T06:46:52.034Z,1.30
2018-08-24T06:49:20.463Z,1.27
2018-08-24T06:51:48.907Z,1.12
2018-08-24T06:54:17.496Z,1.45
2018-08-24T06:56:45.896Z,1.37
2018-08-24T06:59:14.321Z,1.30
2018-08-24T07:01:42.707Z,1.30
2018-08-24T07:04:11.147Z,1.20
2018-08-24T07:06:39.557Z,1.70
2018-08-24T07:09:09.310Z,1.40
2018-08-24T07:11:37.697Z,1.85
2018-08-24T07:14:06.122Z,1.30
2018-08-24T07:16:34.542Z,1.32
2018-08-24T07:19:02.969Z,1.87
2018-08-24T07:21:31.457Z,1.32
2018-08-24T07:23:59.898Z,1.52
2018-08-24T07:26:28.276Z,1.22
2018-08-24T07:28:56.718Z,1.55
2018-08-24T07:31:25.137Z,1.27
2018-08-24T07:33:53.594Z,1.50
2018-08-24T07:36:22.007Z,1.60
2018-08-24T07:38:50.457Z,1.42
2018-08-24T07:41:18.916Z,1.65
2018-08-24T07:43:47.352Z,1.30
2018-08-24T07:46:15.740Z,1.50
2018-08-24T07:48:44.185Z,1.70
2018-08-24T07:51:12.569Z,1.45
2018-08-24T07:53:40.969Z,1.57
2018-08-24T07:56:09.444Z,1.25
2018-08-24T07:58:37.933Z,1.30
2018-08-24T08:01:06.381Z,1.82
2018-08-24T08:03:34.783Z,1.57
2018-08-24T08:06:03.220Z,1.22
2018-08-24T08:08:31.620Z,1.70
2018-08-24T08:11:00.145Z,1.27
2018-08-24T08:13:28.531Z,1.60
2018-08-24T08:15:56.961Z,1.47
2018-08-24T08:18:25.413Z,1.60
2018-08-24T08:20:53.787Z,1.80
2018-08-24T08:23:22.166Z,1.40
2018-08-24T08:25:50.304Z,1.42
2018-08-24T08:28:18.716Z,1.50
2018-08-24T08:30:47.176Z,1.30
2018-08-24T08:33:15.564Z,1.60
2018-08-24T08:35:43.979Z,1.77
2018-08-24T08:38:12.365Z,1.50
2018-08-24T08:40:40.798Z,1.22
2018-08-24T08:43:09.188Z,1.50
2018-08-24T08:45:37.608Z,1.47
2018-08-24T08:48:06.024Z,1.12
2018-08-24T08:50:34.457Z,1.47
2018-08-24T08:53:02.885Z,1.30
2018-08-24T08:55:31.356Z,1.30
2018-08-24T08:57:59.769Z,1.67
2018-08-24T09:00:28.211Z,1.65
2018-08-24T09:02:56.335Z,1.57
2018-08-24T09:05:24.802Z,1.57
2018-08-24T09:07:53.205Z,1.40
2018-08-24T09:10:21.712Z,1.70
2018-08-24T09:12:50.108Z,1.30
2018-08-24T09:15:18.545Z,1.67
2018-08-24T09:17:52.260Z,1.40
2018-08-24T09:20:25.973Z,1.17
2018-08-24T09:22:59.812Z,1.55
2018-08-24T09:25:33.569Z,1.60
2018-08-24T09:28:07.296Z,1.60
2018-08-24T09:30:39.872Z,1.47
2018-08-24T09:33:08.257Z,1.45
2018-08-24T09:35:36.673Z,1.95
2018-08-24T09:38:05.182Z,1.60
2018-08-24T09:40:38.789Z,1.55
2018-08-24T09:43:12.546Z,1.95
2018-08-24T09:45:40.903Z,2.60
2018-08-24T09:48:14.543Z,1.65
2018-08-24T09:50:48.329Z,2.10
2018-08-24T09:53:22.008Z,1.80
2018-08-24T09:55:50.487Z,2.45
2018-08-24T09:58:18.893Z,1.52
2018-08-24T10:00:52.657Z,1.70
2018-08-24T10:03:26.464Z,1.45
2018-08-24T10:06:00.266Z,1.98
2018-08-24T10:08:29.900Z,1.80
2018-08-24T10:10:58.329Z,1.70
2018-08-24T10:13:26.768Z,2.22
2018-08-24T10:15:55.162Z,2.47
2018-08-24T10:18:23.577Z,2.47
2018-08-24T10:20:51.969Z,2.15
2018-08-24T10:23:20.401Z,3.08
2018-08-24T10:25:48.817Z,2.62
2018-08-24T10:28:17.237Z,2.60
2018-08-24T10:30:45.725Z,2.58
2018-08-24T10:33:14.337Z,2.67
2018-08-24T10:35:42.732Z,2.62
2018-08-24T10:38:11.188Z,2.30
2018-08-24T10:40:39.633Z,2.77
2018-08-24T10:43:08.055Z,2.33
2018-08-24T10:45:37.102Z,2.22
2018-08-24T10:48:05.707Z,2.10
2018-08-24T10:50:34.321Z,2.17
2018-08-24T10:53:02.858Z,1.87
2018-08-24T10:55:31.314Z,2.08
2018-08-24T10:57:59.763Z,1.87
2018-08-24T11:00:28.172Z,1.92
2018-08-24T11:02:56.580Z,2.15
2018-08-24T11:05:25.065Z,2.30
2018-08-24T11:07:53.417Z,2.60
2018-08-24T11:10:21.796Z,2.25
2018-08-24T11:12:50.220Z,2.85
2018-08-24T11:15:18.608Z,2.70
2018-08-24T11:17:52.449Z,2.37
2018-08-24T11:20:20.836Z,2.25
2018-08-24T11:22:49.265Z,2.65
2018-08-24T11:25:17.709Z,2.95
2018-08-24T11:27:46.130Z,2.67
2018-08-24T11:30:14.534Z,2.50
2018-08-24T11:32:42.949Z,2.55
2018-08-24T11:35:11.369Z,2.52
2018-08-24T11:37:39.820Z,2.85
2018-08-24T11:40:08.207Z,2.67
2018-08-24T11:42:36.660Z,2.98
2018-08-24T11:45:05.436Z,2.42
2018-08-24T11:47:33.896Z,2.47
2018-08-24T11:50:02.303Z,3.22
2018-08-24T11:52:30.721Z,3.02
2018-08-24T11:54:59.255Z,2.83
2018-08-24T11:57:27.653Z,2.42
2018-08-24T11:59:56.133Z,2.70
2018-08-24T12:02:24.508Z,2.50
2018-08-24T12:04:52.953Z,2.77
2018-08-24T12:07:21.336Z,3.17
2018-08-24T12:09:49.772Z,2.62
2018-08-24T12:12:18.205Z,2.52
2018-08-24T12:14:46.625Z,3.15
2018-08-24T12:17:20.425Z,2.80
2018-08-24T12:19:48.869Z,2.90
2018-08-24T12:22:17.264Z,2.75
2018-08-24T12:24:45.704Z,2.50
2018-08-24T12:27:14.170Z,2.50
2018-08-24T12:29:42.568Z,2.98
2018-08-24T12:32:11.018Z,2.62
2018-08-24T12:34:39.482Z,3.00
2018-08-24T12:37:10.912Z,2.40
2018-08-24T12:39:40.052Z,2.17
2018-08-24T12:42:09.733Z,2.22
2018-08-24T12:44:38.745Z,3.00
2018-08-24T12:47:07.164Z,2.45
2018-08-24T12:49:35.619Z,2.58
2018-08-24T12:52:04.485Z,2.37
2018-08-24T12:54:32.926Z,3.15
2018-08-24T12:57:01.809Z,2.72
2018-08-24T12:59:30.263Z,2.67
2018-08-24T13:01:58.718Z,2.87
2018-08-24T13:04:27.171Z,2.45
2018-08-24T13:06:55.775Z,2.70
2018-08-24T13:09:24.242Z,2.52
2018-08-24T13:11:52.676Z,2.67
2018-08-24T13:14:21.173Z,2.72
2018-08-24T13:16:49.608Z,2.42
2018-08-24T13:19:18.058Z,2.83
2018-08-24T13:21:46.445Z,2.80
2018-08-24T13:24:14.914Z,2.87
2018-08-24T13:26:43.310Z,2.55
2018-08-24T13:29:11.748Z,2.90
2018-08-24T13:31:40.122Z,2.75
2018-08-24T13:34:08.578Z,3.08
2018-08-24T13:36:37.020Z,2.65
2018-08-24T13:39:07.651Z,2.70
2018-08-24T13:41:36.480Z,2.70
2018-08-24T13:44:04.935Z,2.37
2018-08-24T13:46:33.361Z,2.52
2018-08-24T13:49:01.756Z,2.42
2018-08-24T13:51:30.201Z,2.85
2018-08-24T13:53:58.676Z,2.83
2018-08-24T13:56:27.222Z,3.00
2018-08-24T13:58:55.681Z,2.72
2018-08-24T14:01:24.112Z,2.25
2018-08-24T14:03:52.535Z,2.92
2018-08-24T14:06:20.964Z,3.02
2018-08-24T14:08:49.365Z,3.27
2018-08-24T14:11:17.893Z,2.58
2018-08-24T14:13:46.295Z,2.95
2018-08-24T14:16:14.728Z,2.60
2018-08-24T14:18:43.117Z,2.87
2018-08-24T14:21:11.561Z,2.62
2018-08-24T14:23:39.945Z,2.75
2018-08-24T14:26:08.125Z,2.92
2018-08-24T14:28:36.224Z,2.70
2018-08-24T14:31:04.460Z,2.55
2018-08-24T14:33:32.864Z,2.40
2018-08-24T14:36:01.305Z,2.20
2018-08-24T14:38:29.444Z,2.65
2018-08-24T14:40:57.869Z,2.30
2018-08-24T14:43:26.294Z,2.17
2018-08-24T14:45:54.788Z,2.80
2018-08-24T14:48:23.288Z,2.70
2018-08-24T14:50:51.667Z,2.37
2018-08-24T14:53:20.071Z,2.55
2018-08-24T14:55:48.550Z,2.95
2018-08-24T14:58:16.956Z,2.42
2018-08-24T15:00:45.400Z,2.50
2018-08-24T15:03:13.797Z,2.60
2018-08-24T15:05:42.221Z,2.83
2018-08-24T15:08:10.616Z,2.75
2018-08-24T15:10:39.082Z,4.67
2018-08-24T15:13:07.490Z,5.00
2018-08-24T15:15:36.101Z,5.42
2018-08-24T15:18:04.251Z,5.70
2018-08-24T15:20:32.643Z,6.08
2018-08-24T15:23:01.082Z,5.70
2018-08-24T15:25:29.485Z,6.33
2018-08-24T15:27:57.920Z,6.47
2018-08-24T15:30:26.404Z,5.80
2018-08-24T15:32:54.830Z,5.92
2018-08-24T15:35:23.227Z,5.53
2018-08-24T15:37:51.792Z,5.72
2018-08-24T15:40:20.196Z,5.55
2018-08-24T15:42:48.628Z,6.45
2018-08-24T15:45:16.769Z,5.72
2018-08-24T15:47:45.216Z,5.55
2018-08-24T15:50:13.640Z,5.72
2018-08-24T15:52:42.076Z,6.12
2018-08-24T15:55:10.504Z,5.30
2018-08-24T15:57:38.937Z,5.47
2018-08-24T16:00:07.698Z,5.95
2018-08-24T16:02:36.151Z,6.62
2018-08-24T16:05:04.641Z,5.85
2018-08-24T16:07:37.380Z,6.95
2018-08-24T16:10:06.462Z,6.80
2018-08-24T16:12:34.818Z,6.72
2018-08-24T16:15:03.236Z,6.67
2018-08-24T16:17:31.719Z,5.92
2018-08-24T16:20:00.496Z,6.62
2018-08-24T16:22:28.913Z,5.60
2018-08-24T16:24:57.312Z,6.08
2018-08-24T16:27:26.045Z,5.10
2018-08-24T16:29:56.329Z,5.10
2018-08-24T16:32:24.750Z,4.62
2018-08-24T16:34:53.176Z,3.80
2018-08-24T16:37:21.646Z,4.58
2018-08-24T16:39:50.048Z,4.37
2018-08-24T16:42:18.492Z,4.70
2018-08-24T16:44:47.168Z,4.00
2018-08-24T16:47:15.632Z,4.22
2018-08-24T16:49:44.012Z,3.83
2018-08-24T16:52:12.444Z,3.75
2018-08-24T16:54:40.891Z,4.37
2018-08-24T16:57:09.048Z,4.42
2018-08-24T16:59:37.464Z,4.42
2018-08-24T17:02:05.976Z,4.03
2018-08-24T17:04:34.400Z,4.30
2018-08-24T17:07:02.823Z,4.70
2018-08-24T17:09:31.237Z,4.53
2018-08-24T17:11:59.651Z,4.75
2018-08-24T17:14:28.074Z,3.80
2018-08-24T17:16:56.478Z,4.75
2018-08-24T17:19:24.917Z,4.35
2018-08-24T17:21:53.301Z,4.50
2018-08-24T17:24:21.728Z,5.05
2018-08-24T17:26:50.100Z,4.67
2018-08-24T17:29:18.553Z,4.67
2018-08-24T17:31:46.942Z,4.40
2018-08-24T17:34:15.377Z,4.65
2018-08-24T17:36:43.768Z,5.30
2018-08-24T17:39:12.717Z,5.47
2018-08-24T17:41:41.237Z,6.05
2018-08-24T17:44:09.781Z,6.47
2018-08-24T17:46:38.320Z,5.05
2018-08-24T17:49:07.154Z,5.45
2018-08-24T17:51:35.696Z,4.05
2018-08-24T17:54:04.301Z,4.45
2018-08-24T17:56:32.857Z,3.83
2018-08-24T17:59:01.341Z,3.55
2018-08-24T18:01:29.788Z,3.75
2018-08-24T18:03:58.197Z,3.95
2018-08-24T18:06:26.604Z,3.80
2018-08-24T18:08:55.060Z,3.55
2018-08-24T18:11:23.461Z,3.62
2018-08-24T18:13:51.904Z,4.17
2018-08-24T18:16:20.360Z,4.47
2018-08-24T18:18:49.085Z,3.90
2018-08-24T18:21:17.478Z,3.70
2018-08-24T18:23:45.893Z,3.72
2018-08-24T18:26:14.300Z,4.12
2018-08-24T18:28:42.713Z,4.58
2018-08-24T18:31:11.120Z,4.40
2018-08-24T18:33:39.848Z,4.42
2018-08-24T18:36:08.301Z,4.70
2018-08-24T18:38:36.717Z,4.47
2018-08-24T18:41:05.144Z,4.33
2018-08-24T18:43:33.537Z,4.70
2018-08-24T18:46:01.993Z,5.70
2018-08-24T18:48:30.424Z,5.37
2018-08-24T18:50:58.842Z,6.55
2018-08-24T18:53:27.465Z,5.70
2018-08-24T18:55:55.937Z,5.37
2018-08-24T18:58:24.354Z,4.67
2018-08-24T19:00:52.781Z,4.20
2018-08-24T19:03:21.160Z,4.40
2018-08-24T19:05:49.575Z,4.53
2018-08-24T19:08:17.954Z,4.08
2018-08-24T19:10:51.740Z,4.92
2018-08-24T19:13:20.138Z,5.20
2018-08-24T19:15:48.693Z,5.45
2018-08-24T19:18:22.440Z,4.90
2018-08-24T19:20:56.244Z,4.95
2018-08-24T19:23:24.881Z,5.08
2018-08-24T19:25:53.376Z,4.87
2018-08-24T19:28:27.125Z,5.78
2018-08-24T19:30:55.553Z,5.70
2018-08-24T19:33:23.944Z,5.15
2018-08-24T19:35:52.365Z,4.70
2018-08-24T19:38:20.570Z,4.58
2018-08-24T19:40:55.739Z,4.87
2018-08-24T19:43:24.230Z,3.83
2018-08-24T19:45:52.659Z,5.15
2018-08-24T19:48:26.421Z,4.03
2018-08-24T19:50:54.842Z,5.00
2018-08-24T19:53:23.236Z,4.60
2018-08-24T19:55:51.717Z,4.00
2018-08-24T19:58:25.457Z,4.33
2018-08-24T20:00:53.900Z,3.75
2018-08-24T20:03:22.336Z,4.60
2018-08-24T20:05:55.948Z,4.47
2018-08-24T20:08:29.649Z,4.58
2018-08-24T20:10:58.089Z,4.15
2018-08-24T20:13:26.484Z,4.62
2018-08-24T20:16:00.237Z,4.50
2018-08-24T20:18:28.652Z,4.50
2018-08-24T20:20:57.336Z,4.85
2018-08-24T20:23:25.749Z,4.60
2018-08-24T20:25:54.176Z,5.25
2018-08-24T20:28:22.577Z,5.50
2018-08-24T20:30:51.000Z,4.83
2018-08-24T20:33:19.488Z,5.00
2018-08-24T20:35:47.880Z,4.65
2018-08-24T20:38:16.292Z,4.55
2018-08-24T20:40:44.669Z,4.85
2018-08-24T20:43:13.144Z,5.40
2018-08-24T20:45:41.529Z,4.85
2018-08-24T20:48:09.987Z,5.83
2018-08-24T20:50:38.375Z,5.45
2018-08-24T20:53:06.792Z,5.55
2018-08-24T20:55:35.231Z,6.20
2018-08-24T20:58:03.376Z,5.60
2018-08-24T21:00:31.789Z,5.83
2018-08-24T21:03:00.264Z,5.87
2018-08-24T21:05:28.712Z,5.95
2018-08-24T21:07:57.148Z,5.53
2018-08-24T21:10:25.560Z,6.47
2018-08-24T21:12:54.006Z,5.35
2018-08-24T21:15:22.410Z,6.40
2018-08-24T21:17:50.837Z,6.40
2018-08-24T21:20:19.258Z,6.22
2018-08-24T21:22:47.669Z,6.67
2018-08-24T21:25:16.088Z,6.25
2018-08-24T21:27:44.552Z,6.10
2018-08-24T21:30:12.971Z,6.03
2018-08-24T21:32:41.457Z,6.72
2018-08-24T21:35:09.860Z,5.70
2018-08-24T21:37:38.335Z,6.45
2018-08-24T21:40:06.761Z,6.15
2018-08-24T21:42:35.334Z,7.37
2018-08-24T21:45:03.797Z,6.85
2018-08-24T21:47:32.668Z,6.58
2018-08-24T21:50:01.064Z,6.15
2018-08-24T21:52:29.512Z,6.97
2018-08-24T21:54:57.924Z,6.25
2018-08-24T21:57:26.332Z,5.92
2018-08-24T21:59:54.769Z,6.03
2018-08-24T22:02:23.158Z,6.25
2018-08-24T22:04:51.625Z,6.22
2018-08-24T22:07:20.027Z,6.15
2018-08-24T22:09:48.736Z,6.40
2018-08-24T22:12:17.154Z,6.37
2018-08-24T22:14:45.614Z,6.28
2018-08-24T22:17:14.045Z,6.30
2018-08-24T22:19:42.524Z,6.67
2018-08-24T22:22:10.915Z,6.22
2018-08-24T22:24:39.350Z,5.65
2018-08-24T22:27:07.752Z,5.80
2018-08-24T22:29:36.211Z,7.08
2018-08-24T22:32:04.628Z,6.97
2018-08-24T22:34:33.044Z,7.15
2018-08-24T22:37:01.437Z,7.62
2018-08-24T22:39:29.904Z,6.45
2018-08-24T22:41:58.310Z,7.12
2018-08-24T22:44:26.732Z,7.60
2018-08-24T22:46:55.166Z,7.15
2018-08-24T22:49:23.588Z,6.55
2018-08-24T22:51:51.981Z,10.88
2018-08-24T22:54:20.445Z,11.08
2018-08-24T22:56:48.928Z,10.10
2018-08-24T22:59:17.324Z,9.33
2018-08-24T23:01:45.741Z,9.05
2018-08-24T23:04:13.828Z,7.53
2018-08-24T23:06:42.262Z,7.47
2018-08-24T23:09:11.478Z,7.28
2018-08-24T23:11:40.065Z,7.05
2018-08-24T23:14:08.819Z,6.28
2018-08-24T23:16:37.238Z,6.40
2018-08-24T23:19:05.840Z,6.28
2018-08-24T23:21:34.272Z,7.08
2018-08-24T23:24:02.667Z,6.92
2018-08-24T23:26:31.099Z,7.40
2018-08-24T23:28:59.493Z,7.30
2018-08-24T23:31:27.936Z,6.60
2018-08-24T23:33:56.397Z,7.20
2018-08-24T23:36:24.833Z,7.35
2018-08-24T23:38:53.220Z,7.00
2018-08-24T23:41:21.640Z,6.78
2018-08-24T23:43:50.105Z,8.13
2018-08-24T23:46:18.534Z,6.20
2018-08-24T23:48:46.932Z,6.87
2018-08-24T23:51:15.392Z,7.15
2018-08-24T23:53:43.831Z,7.08
2018-08-24T23:56:12.280Z,6.85
2018-08-24T23:58:40.807Z,7.20
